Time,TemperatureF,DewpointF,PressureIn,WindDirection,WindDirectionDegrees,WindSpeedMPH,WindSpeedGustMPH,Humidity,HourlyPrecipIn,Conditions,Clouds,dailyrainin,SoftwareType,DateUTC
2013-10-22 00:01:00,54.3,51.4,30.02,WNW,292,0.0,1.6,90,0.00,,,0.00,open2300-1.11,2013-10-21 22:01:00,
2013-10-22 00:11:00,53.8,50.9,30.02,SW,225,0.7,2.2,90,0.00,,,0.00,open2300-1.11,2013-10-21 22:11:00,
2013-10-22 00:21:00,53.2,50.0,30.02,SSW,202,0.0,1.3,89,0.00,,,0.00,open2300-1.11,2013-10-21 22:21:00,
2013-10-22 00:31:00,52.9,49.7,30.02,WNW,292,0.9,1.1,89,0.00,,,0.00,open2300-1.11,2013-10-21 22:31:00,
2013-10-22 00:41:00,52.7,49.5,30.02,WNW,292,0.0,0.9,89,0.00,,,0.00,open2300-1.11,2013-10-21 22:41:00,
2013-10-22 00:51:00,52.5,49.3,30.02,SSW,202,1.6,2.5,89,0.00,,,0.00,open2300-1.11,2013-10-21 22:51:00,
2013-10-22 01:01:00,52.3,49.2,30.02,SSW,202,0.0,2.9,89,0.00,,,0.00,open2300-1.11,2013-10-21 23:01:00,
2013-10-22 01:11:00,52.3,49.5,30.02,ESE,112,0.0,2.0,90,0.00,,,0.00,open2300-1.11,2013-10-21 23:11:00,
2013-10-22 01:21:00,52.3,49.5,30.02,ENE,67,0.0,0.0,90,0.00,,,0.00,open2300-1.11,2013-10-21 23:21:00,
2013-10-22 01:31:00,52.0,49.1,30.02,East,90,0.0,1.1,90,0.00,,,0.00,open2300-1.11,2013-10-21 23:31:00,
2013-10-22 01:41:00,51.8,48.9,30.02,NE,45,0.0,0.0,90,0.00,,,0.00,open2300-1.11,2013-10-21 23:41:00,
2013-10-22 01:51:00,51.6,48.7,30.02,South,180,1.6,3.6,90,0.00,,,0.00,open2300-1.11,2013-10-21 23:51:00,
2013-10-22 02:01:00,51.6,48.7,30.02,South,180,0.0,2.7,90,0.00,,,0.00,open2300-1.11,2013-10-22 00:01:00,
2013-10-22 02:11:00,51.6,48.7,30.02,NNE,22,1.3,2.0,90,0.00,,,0.00,open2300-1.11,2013-10-22 00:11:00,
2013-10-22 02:21:00,51.1,48.2,30.02,NNE,22,0.0,1.6,90,0.00,,,0.00,open2300-1.11,2013-10-22 00:21:00,
2013-10-22 02:31:00,51.1,48.5,30.02,SSE,157,0.0,0.0,91,0.00,,,0.00,open2300-1.11,2013-10-22 00:31:00,
2013-10-22 02:41:00,51.1,48.5,30.01,WSW,247,0.0,1.6,91,0.00,,,0.00,open2300-1.11,2013-10-22 00:41:00,
2013-10-22 02:51:00,51.1,48.5,30.01,West,270,0.0,0.0,91,0.00,,,0.00,open2300-1.11,2013-10-22 00:51:00,
2013-10-22 03:05:00,50.9,48.3,30.01,West,270,0.0,0.0,91,0.00,,,0.00,open2300-1.11,2013-10-22 01:05:00,
2013-10-22 03:11:00,50.9,48.3,30.01,West,270,0.0,0.9,91,0.00,,,0.00,open2300-1.11,2013-10-22 01:11:00,
2013-10-22 03:21:00,50.7,47.8,30.01,WNW,292,0.0,0.0,90,0.00,,,0.00,open2300-1.11,2013-10-22 01:21:00,
2013-10-22 03:31:00,50.5,47.7,30.01,WNW,292,0.0,0.0,90,0.00,,,0.00,open2300-1.11,2013-10-22 01:31:00,
2013-10-22 03:41:00,50.4,47.5,30.01,SSW,202,0.9,0.9,90,0.00,,,0.00,open2300-1.11,2013-10-22 01:41:00,
2013-10-22 03:51:00,50.2,47.6,30.01,SSW,202,0.0,2.2,91,0.00,,,0.00,open2300-1.11,2013-10-22 01:51:00,
2013-10-22 04:01:00,50.2,47.6,30.01,SSW,202,0.0,1.3,91,0.00,,,0.00,open2300-1.11,2013-10-22 02:01:00,
2013-10-22 04:11:00,50.0,47.4,30.01,SSW,202,0.0,0.0,91,0.00,,,0.00,open2300-1.11,2013-10-22 02:11:00,
2013-10-22 04:21:00,50.2,47.6,30.01,South,180,0.0,0.7,91,0.00,,,0.00,open2300-1.11,2013-10-22 02:21:00,
2013-10-22 04:31:00,50.2,47.6,30.00,NNE,22,0.0,1.6,91,0.00,,,0.00,open2300-1.11,2013-10-22 02:31:00,
2013-10-22 04:41:00,49.8,47.2,30.00,NNE,22,0.0,0.0,91,0.00,,,0.00,open2300-1.11,2013-10-22 02:41:00,
2013-10-22 04:51:00,49.8,47.2,30.01,NNE,22,0.0,0.0,91,0.00,,,0.00,open2300-1.11,2013-10-22 02:51:00,
2013-10-22 04:55:00,49.8,47.2,30.01,NNE,22,0.0,0.0,91,0.00,,,0.00,open2300-1.11,2013-10-22 02:55:00,
2013-10-22 05:01:00,49.8,47.2,30.01,SW,225,0.9,0.9,91,0.00,,,0.00,open2300-1.11,2013-10-22 03:01:00,
2013-10-22 05:11:00,49.8,47.2,30.01,SW,225,0.0,0.0,91,0.00,,,0.00,open2300-1.11,2013-10-22 03:11:00,
2013-10-22 05:21:00,49.8,47.2,30.01,SW,225,0.0,0.0,91,0.00,,,0.00,open2300-1.11,2013-10-22 03:21:00,
2013-10-22 05:31:00,49.8,47.2,30.00,SW,225,0.0,0.0,91,0.00,,,0.00,open2300-1.11,2013-10-22 03:31:00,
2013-10-22 05:41:00,49.8,47.2,30.00,SW,225,0.0,0.0,91,0.00,,,0.00,open2300-1.11,2013-10-22 03:41:00,
2013-10-22 05:51:00,49.6,47.1,30.00,WNW,292,0.0,0.0,91,0.00,,,0.00,open2300-1.11,2013-10-22 03:51:00,
2013-10-22 06:01:00,49.6,47.1,30.01,WNW,292,0.0,0.0,91,0.00,,,0.00,open2300-1.11,2013-10-22 04:01:00,
2013-10-22 06:05:00,49.6,47.1,30.00,WNW,292,0.0,0.0,91,0.00,,,0.00,open2300-1.11,2013-10-22 04:05:00,
2013-10-22 06:11:00,49.3,46.7,30.00,WNW,292,0.0,0.0,91,0.00,,,0.00,open2300-1.11,2013-10-22 04:11:00,
2013-10-22 06:15:00,49.3,46.7,30.00,WNW,292,0.0,0.0,91,0.00,,,0.00,open2300-1.11,2013-10-22 04:15:00,
2013-10-22 06:21:00,49.3,46.7,30.00,SW,225,0.0,0.0,91,0.00,,,0.00,open2300-1.11,2013-10-22 04:21:00,
2013-10-22 06:25:00,49.1,46.6,30.00,SW,225,0.0,0.0,91,0.00,,,0.00,open2300-1.11,2013-10-22 04:25:00,
2013-10-22 06:31:00,48.9,46.4,30.00,SSW,202,0.0,0.0,91,0.00,,,0.00,open2300-1.11,2013-10-22 04:31:00,
2013-10-22 06:41:00,48.7,46.5,30.00,South,180,0.0,0.0,92,0.00,,,0.00,open2300-1.11,2013-10-22 04:41:00,
2013-10-22 06:51:00,48.7,46.5,30.00,South,180,0.0,0.0,92,0.00,,,0.00,open2300-1.11,2013-10-22 04:51:00,
2013-10-22 07:01:00,48.7,46.5,30.00,South,180,0.0,0.0,92,0.00,,,0.00,open2300-1.11,2013-10-22 05:01:00,
2013-10-22 07:11:00,48.7,46.5,30.00,SSW,202,1.8,2.0,92,0.00,,,0.00,open2300-1.11,2013-10-22 05:11:00,
2013-10-22 07:21:00,48.6,46.4,30.00,SSW,202,0.0,1.8,92,0.00,,,0.00,open2300-1.11,2013-10-22 05:21:00,
2013-10-22 07:31:00,48.7,46.5,30.00,SSW,202,0.0,0.0,92,0.00,,,0.00,open2300-1.11,2013-10-22 05:31:00,
2013-10-22 07:41:00,48.7,46.5,29.99,SSE,157,0.0,0.9,92,0.00,,,0.00,open2300-1.11,2013-10-22 05:41:00,
2013-10-22 07:51:00,48.7,46.5,30.00,NNE,22,0.0,1.6,92,0.00,,,0.00,open2300-1.11,2013-10-22 05:51:00,
2013-10-22 08:01:00,48.9,46.7,30.01,NNE,22,0.0,0.7,92,0.00,,,0.00,open2300-1.11,2013-10-22 06:01:00,
2013-10-22 08:11:00,48.7,46.5,30.00,NW,315,0.0,0.0,92,0.00,,,0.00,open2300-1.11,2013-10-22 06:11:00,
2013-10-22 08:21:00,48.6,46.4,30.00,NW,315,0.0,0.0,92,0.00,,,0.00,open2300-1.11,2013-10-22 06:21:00,
2013-10-22 08:31:00,48.6,46.4,30.01,SSW,202,0.0,0.0,92,0.00,,,0.00,open2300-1.11,2013-10-22 06:31:00,
2013-10-22 08:41:00,48.7,46.5,30.00,SSW,202,0.0,0.0,92,0.00,,,0.00,open2300-1.11,2013-10-22 06:41:00,
2013-10-22 08:51:00,48.9,46.7,30.00,SSW,202,0.0,0.0,92,0.00,,,0.00,open2300-1.11,2013-10-22 06:51:00,
2013-10-22 09:01:00,49.6,47.3,30.00,SSW,202,0.0,0.0,92,0.02,,,0.02,open2300-1.11,2013-10-22 07:01:00,
2013-10-22 09:11:00,49.8,47.5,30.01,SSW,202,0.0,0.0,92,0.02,,,0.02,open2300-1.11,2013-10-22 07:11:00,
2013-10-22 09:21:00,50.5,48.5,30.00,SSW,202,0.0,0.0,93,0.02,,,0.02,open2300-1.11,2013-10-22 07:21:00,
2013-10-22 09:31:00,50.9,48.9,30.00,SSW,202,0.0,0.0,93,0.02,,,0.02,open2300-1.11,2013-10-22 07:31:00,
2013-10-22 09:41:00,51.6,49.6,30.00,SSW,202,0.0,2.0,93,0.02,,,0.02,open2300-1.11,2013-10-22 07:41:00,
2013-10-22 09:51:00,52.3,50.3,30.00,SW,225,0.0,1.3,93,0.02,,,0.02,open2300-1.11,2013-10-22 07:51:00,
2013-10-22 10:01:00,52.9,50.9,30.00,SSW,202,1.6,1.8,93,0.00,,,0.02,open2300-1.11,2013-10-22 08:01:00,
2013-10-22 10:11:00,53.4,51.4,30.00,SSW,202,3.6,3.6,93,0.00,,,0.02,open2300-1.11,2013-10-22 08:11:00,
2013-10-22 10:21:00,54.1,52.1,30.00,SSW,202,3.8,5.1,93,0.00,,,0.02,open2300-1.11,2013-10-22 08:21:00,
2013-10-22 10:31:00,54.7,52.7,30.00,SSW,202,0.0,3.6,93,0.00,,,0.02,open2300-1.11,2013-10-22 08:31:00,
2013-10-22 10:41:00,55.2,53.2,30.00,South,180,0.0,2.5,93,0.00,,,0.02,open2300-1.11,2013-10-22 08:41:00,
2013-10-22 10:51:00,55.6,53.6,30.00,SW,225,0.0,2.2,93,0.00,,,0.02,open2300-1.11,2013-10-22 08:51:00,
2013-10-22 11:01:00,56.3,54.3,29.99,ESE,112,0.0,1.6,93,0.00,,,0.02,open2300-1.11,2013-10-22 09:01:00,
2013-10-22 11:11:00,56.8,54.5,29.99,SSW,202,2.2,3.6,92,0.00,,,0.02,open2300-1.11,2013-10-22 09:11:00,
2013-10-22 11:21:00,57.0,54.7,29.99,SSW,202,0.0,2.2,92,0.00,,,0.02,open2300-1.11,2013-10-22 09:21:00,
2013-10-22 11:31:00,57.6,55.3,29.99,SSW,202,0.0,2.2,92,0.00,,,0.02,open2300-1.11,2013-10-22 09:31:00,
2013-10-22 11:41:00,58.6,56.3,29.99,North,0,0.0,1.6,92,0.00,,,0.02,open2300-1.11,2013-10-22 09:41:00,
2013-10-22 11:51:00,59.4,56.8,29.99,NNE,22,0.0,2.2,91,0.00,,,0.02,open2300-1.11,2013-10-22 09:51:00,
2013-10-22 12:01:00,59.9,57.0,29.98,North,0,0.0,2.9,90,0.00,,,0.02,open2300-1.11,2013-10-22 10:01:00,
2013-10-22 12:11:00,60.6,57.1,29.98,ENE,67,0.0,2.7,88,0.00,,,0.02,open2300-1.11,2013-10-22 10:11:00,
2013-10-22 12:21:00,61.2,57.3,29.97,ENE,67,0.0,2.9,87,0.00,,,0.02,open2300-1.11,2013-10-22 10:21:00,
2013-10-22 12:31:00,61.7,57.2,29.97,SSW,202,3.4,5.1,85,0.00,,,0.02,open2300-1.11,2013-10-22 10:31:00,
2013-10-22 12:41:00,62.4,57.5,29.97,East,90,1.6,3.8,84,0.00,,,0.02,open2300-1.11,2013-10-22 10:41:00,
2013-10-22 12:51:00,62.4,57.2,29.97,SE,135,0.0,1.6,83,0.00,,,0.02,open2300-1.11,2013-10-22 10:51:00,
2013-10-22 13:01:00,62.4,56.8,29.97,WNW,292,0.0,2.5,82,0.00,,,0.02,open2300-1.11,2013-10-22 11:01:00,
2013-10-22 13:11:00,63.1,57.2,29.96,SW,225,1.1,4.7,81,0.00,,,0.02,open2300-1.11,2013-10-22 11:11:00,
2013-10-22 13:21:00,63.9,57.6,29.96,South,180,0.0,4.2,80,0.00,,,0.02,open2300-1.11,2013-10-22 11:21:00,
2013-10-22 13:31:00,64.2,57.6,29.95,ESE,112,1.6,3.8,79,0.00,,,0.02,open2300-1.11,2013-10-22 11:31:00,
2013-10-22 13:41:00,64.6,57.9,29.95,East,90,0.0,3.1,79,0.00,,,0.02,open2300-1.11,2013-10-22 11:41:00,
2013-10-22 13:51:00,64.8,57.4,29.95,East,90,0.0,2.7,77,0.00,,,0.02,open2300-1.11,2013-10-22 11:51:00,
2013-10-22 14:01:00,65.1,57.7,29.95,SSE,157,0.0,2.9,77,0.00,,,0.02,open2300-1.11,2013-10-22 12:01:00,
2013-10-22 14:11:00,65.1,57.7,29.94,ESE,112,0.0,4.7,77,0.00,,,0.02,open2300-1.11,2013-10-22 12:11:00,
2013-10-22 14:21:00,65.3,57.5,29.94,East,90,0.0,3.8,76,0.00,,,0.02,open2300-1.11,2013-10-22 12:21:00,
2013-10-22 14:31:00,65.8,58.0,29.93,North,0,2.5,5.8,76,0.00,,,0.02,open2300-1.11,2013-10-22 12:31:00,
2013-10-22 14:41:00,66.6,58.4,29.93,East,90,0.0,4.2,75,0.00,,,0.02,open2300-1.11,2013-10-22 12:41:00,
2013-10-22 14:51:00,66.9,58.3,29.93,NNW,337,0.0,4.5,74,0.00,,,0.02,open2300-1.11,2013-10-22 12:51:00,
2013-10-22 15:01:00,66.9,58.7,29.92,NNW,337,0.0,4.2,75,0.00,,,0.02,open2300-1.11,2013-10-22 13:01:00,
2013-10-22 15:11:00,67.1,58.5,29.92,East,90,2.2,4.2,74,0.00,,,0.02,open2300-1.11,2013-10-22 13:11:00,
2013-10-22 15:21:00,67.3,58.7,29.92,East,90,1.3,6.9,74,0.00,,,0.02,open2300-1.11,2013-10-22 13:21:00,
2013-10-22 15:31:00,67.3,58.3,29.91,ESE,112,0.0,4.7,73,0.00,,,0.02,open2300-1.11,2013-10-22 13:31:00,
2013-10-22 15:41:00,67.3,58.3,29.91,NNE,22,1.1,4.5,73,0.00,,,0.02,open2300-1.11,2013-10-22 13:41:00,
2013-10-22 15:51:00,67.3,58.3,29.91,NNE,22,0.7,2.9,73,0.00,,,0.02,open2300-1.11,2013-10-22 13:51:00,
2013-10-22 16:01:00,67.3,58.3,29.91,ESE,112,0.0,4.7,73,0.00,,,0.02,open2300-1.11,2013-10-22 14:01:00,
2013-10-22 16:11:00,67.6,58.7,29.91,ENE,67,0.0,3.8,73,0.00,,,0.02,open2300-1.11,2013-10-22 14:11:00,
2013-10-22 16:21:00,67.1,58.2,29.91,NNE,22,4.2,5.6,73,0.00,,,0.02,open2300-1.11,2013-10-22 14:21:00,
2013-10-22 16:31:00,66.7,57.8,29.91,ENE,67,0.0,3.8,73,0.00,,,0.02,open2300-1.11,2013-10-22 14:31:00,
2013-10-22 16:41:00,66.4,57.4,29.91,ENE,67,0.0,2.9,73,0.00,,,0.02,open2300-1.11,2013-10-22 14:41:00,
2013-10-22 16:51:00,66.0,57.5,29.91,East,90,0.0,2.0,74,0.00,,,0.02,open2300-1.11,2013-10-22 14:51:00,
2013-10-22 17:01:00,65.8,57.3,29.91,ESE,112,0.0,2.5,74,0.00,,,0.02,open2300-1.11,2013-10-22 15:01:00,
2013-10-22 17:11:00,65.3,57.2,29.91,ESE,112,0.0,3.1,75,0.00,,,0.02,open2300-1.11,2013-10-22 15:11:00,
2013-10-22 17:21:00,64.9,57.2,29.90,East,90,1.6,2.5,76,0.00,,,0.02,open2300-1.11,2013-10-22 15:21:00,
2013-10-22 17:31:00,64.6,56.8,29.90,East,90,0.0,1.3,76,0.00,,,0.02,open2300-1.11,2013-10-22 15:31:00,
2013-10-22 17:41:00,63.9,56.5,29.91,SE,135,0.0,0.0,77,0.00,,,0.02,open2300-1.11,2013-10-22 15:41:00,
2013-10-22 17:51:00,63.1,56.1,29.90,East,90,0.0,1.3,78,0.00,,,0.02,open2300-1.11,2013-10-22 15:51:00,
2013-10-22 18:01:00,62.4,55.4,29.90,ESE,112,0.0,0.0,78,0.00,,,0.02,open2300-1.11,2013-10-22 16:01:00,
2013-10-22 18:11:00,61.9,55.3,29.90,ENE,67,0.0,0.0,79,0.00,,,0.02,open2300-1.11,2013-10-22 16:11:00,
2013-10-22 18:21:00,61.3,55.2,29.90,ENE,67,0.0,0.0,80,0.00,,,0.02,open2300-1.11,2013-10-22 16:21:00,
2013-10-22 18:31:00,60.6,54.5,29.89,ENE,67,0.0,0.0,80,0.00,,,0.02,open2300-1.11,2013-10-22 16:31:00,
2013-10-22 18:41:00,60.1,54.0,29.89,ESE,112,0.0,2.9,80,0.00,,,0.02,open2300-1.11,2013-10-22 16:41:00,
2013-10-22 18:51:00,59.7,53.9,29.89,NE,45,2.0,2.9,81,0.00,,,0.02,open2300-1.11,2013-10-22 16:51:00,
2013-10-22 19:01:00,59.5,54.1,29.90,SSE,157,0.0,2.5,82,0.00,,,0.02,open2300-1.11,2013-10-22 17:01:00,
2013-10-22 19:11:00,59.4,53.9,29.90,ESE,112,2.2,3.8,82,0.00,,,0.02,open2300-1.11,2013-10-22 17:11:00,
2013-10-22 19:21:00,59.2,53.7,29.89,South,180,3.4,4.5,82,0.00,,,0.02,open2300-1.11,2013-10-22 17:21:00,
2013-10-22 19:31:00,58.8,53.3,29.89,South,180,0.0,3.8,82,0.00,,,0.02,open2300-1.11,2013-10-22 17:31:00,
2013-10-22 19:41:00,58.6,52.8,29.89,SSW,202,0.0,2.2,81,0.00,,,0.02,open2300-1.11,2013-10-22 17:41:00,
2013-10-22 19:51:00,58.3,52.5,29.89,SSE,157,0.0,2.5,81,0.00,,,0.02,open2300-1.11,2013-10-22 17:51:00,
2013-10-22 20:01:00,57.9,52.1,29.89,SSW,202,0.0,4.0,81,0.00,,,0.02,open2300-1.11,2013-10-22 18:01:00,
2013-10-22 20:11:00,57.7,51.9,29.89,WSW,247,1.1,3.4,81,0.00,,,0.02,open2300-1.11,2013-10-22 18:11:00,
2013-10-22 20:21:00,57.6,52.1,29.89,SW,225,0.0,4.7,82,0.00,,,0.02,open2300-1.11,2013-10-22 18:21:00,
2013-10-22 20:31:00,57.4,51.9,29.89,NNE,22,1.8,3.8,82,0.00,,,0.02,open2300-1.11,2013-10-22 18:31:00,
2013-10-22 20:41:00,57.4,51.9,29.89,South,180,0.9,3.6,82,0.00,,,0.02,open2300-1.11,2013-10-22 18:41:00,
2013-10-22 20:51:00,57.0,51.5,29.89,South,180,4.0,6.3,82,0.00,,,0.02,open2300-1.11,2013-10-22 18:51:00,
2013-10-22 21:01:00,57.0,51.5,29.89,WSW,247,1.1,4.7,82,0.00,,,0.02,open2300-1.11,2013-10-22 19:01:00,
2013-10-22 21:11:00,56.8,51.7,29.90,SSW,202,1.3,4.0,83,0.00,,,0.02,open2300-1.11,2013-10-22 19:11:00,
2013-10-22 21:21:00,56.5,51.3,29.90,SSE,157,0.0,3.8,83,0.00,,,0.02,open2300-1.11,2013-10-22 19:21:00,
2013-10-22 21:31:00,56.1,51.0,29.89,WSW,247,0.0,5.1,83,0.00,,,0.02,open2300-1.11,2013-10-22 19:31:00,
2013-10-22 21:41:00,56.1,51.0,29.89,ENE,67,0.0,2.0,83,0.00,,,0.02,open2300-1.11,2013-10-22 19:41:00,
2013-10-22 21:51:00,55.8,50.6,29.90,NNE,22,0.0,0.0,83,0.00,,,0.02,open2300-1.11,2013-10-22 19:51:00,
2013-10-22 22:01:00,55.6,50.8,29.90,North,0,0.0,2.9,84,0.00,,,0.02,open2300-1.11,2013-10-22 20:01:00,
2013-10-22 22:11:00,55.2,50.4,29.90,SSW,202,0.0,2.7,84,0.00,,,0.02,open2300-1.11,2013-10-22 20:11:00,
2013-10-22 22:21:00,55.2,50.7,29.90,SW,225,1.1,1.3,85,0.00,,,0.02,open2300-1.11,2013-10-22 20:21:00,
2013-10-22 22:31:00,55.2,50.7,29.90,NE,45,0.0,2.9,85,0.00,,,0.02,open2300-1.11,2013-10-22 20:31:00,
2013-10-22 22:41:00,55.2,50.7,29.91,SSE,157,0.0,1.8,85,0.00,,,0.02,open2300-1.11,2013-10-22 20:41:00,
2013-10-22 22:51:00,55.0,50.6,29.91,SE,135,0.0,1.6,85,0.00,,,0.02,open2300-1.11,2013-10-22 20:51:00,
2013-10-22 23:01:00,55.0,50.6,29.90,ESE,112,0.0,1.1,85,0.00,,,0.02,open2300-1.11,2013-10-22 21:01:00,
2013-10-22 23:11:00,55.0,50.6,29.90,NE,45,1.3,1.3,85,0.00,,,0.02,open2300-1.11,2013-10-22 21:11:00,
2013-10-22 23:21:00,54.9,50.4,29.90,ESE,112,0.0,0.9,85,0.00,,,0.02,open2300-1.11,2013-10-22 21:21:00,
2013-10-22 23:31:00,54.5,50.0,29.91,ESE,112,0.0,0.0,85,0.00,,,0.02,open2300-1.11,2013-10-22 21:31:00,
2013-10-22 23:41:00,54.0,49.5,29.91,ESE,112,0.0,0.0,85,0.00,,,0.02,open2300-1.11,2013-10-22 21:41:00,
2013-10-22 23:51:00,53.6,49.2,29.90,ESE,112,0.0,0.0,85,0.00,,,0.02,open2300-1.11,2013-10-22 21:51:00,